Terminal Aerodrome Forecast
Issued by NWS Brownsville, TX

Home | Current Version | Previous Version | Text Only | Print | Product List | Glossary On
Versions: 1 2 3 4 5 6 7 8 9 10 11 12 13 14 15 16
000
FTUS44 KBRO 301125
TAFBRO
TAF
KBRO 301125Z 3012/3112 05003KT 5SM BR SCT060
      TEMPO 3012/3014 3/4SM BR
     FM301500 04007KT P6SM SCT025 BKN050
     FM301900 05010G15KT P6SM BKN025
     FM310100 08009KT P6SM OVC020
     FM310600 13010KT P6SM SCT025 BKN050=

USA.gov is the U.S. government's official web portal to all federal, state and local government web resources and services.